createdAt,value
2023-03-02T00:00:38.493Z,20.90
2023-03-02T00:03:06.098Z,17.90
2023-03-02T00:05:33.231Z,19.50
2023-03-02T00:08:00.125Z,22.77
2023-03-02T00:10:26.681Z,19.87
2023-03-02T00:12:53.219Z,20.43
2023-03-02T00:15:19.792Z,18.60
2023-03-02T00:17:46.318Z,23.07
2023-03-02T00:20:13.033Z,18.13
2023-03-02T00:22:40.444Z,16.90
2023-03-02T00:25:07.643Z,21.93
2023-03-02T00:27:34.195Z,19.50
2023-03-02T00:30:00.837Z,20.77
2023-03-02T00:32:27.368Z,16.23
2023-03-02T00:34:54.001Z,16.30
2023-03-02T00:37:20.595Z,19.60
2023-03-02T00:39:47.169Z,16.95
2023-03-02T00:42:14.028Z,20.10
2023-03-02T00:44:40.638Z,19.53
2023-03-02T00:47:07.317Z,19.07
2023-03-02T00:49:34.857Z,21.97
2023-03-02T00:52:01.383Z,18.97
2023-03-02T00:54:28.254Z,17.03
2023-03-02T00:56:54.773Z,20.67
2023-03-02T00:59:27.828Z,18.97
2023-03-02T01:02:04.599Z,18.47
2023-03-02T01:04:36.360Z,20.47
2023-03-02T01:07:04.953Z,20.67
2023-03-02T01:09:31.713Z,19.20
2023-03-02T01:11:58.933Z,22.97
2023-03-02T01:14:25.997Z,18.43
2023-03-02T01:16:52.718Z,19.30
2023-03-02T01:19:19.251Z,19.40
2023-03-02T01:21:46.142Z,17.23
2023-03-02T01:24:12.912Z,17.33
2023-03-02T01:26:39.462Z,19.80
2023-03-02T01:29:05.984Z,18.23
2023-03-02T01:31:32.516Z,21.27
2023-03-02T01:33:59.105Z,20.40
2023-03-02T01:36:25.624Z,20.53
2023-03-02T01:38:54.194Z,20.17
2023-03-02T01:41:20.854Z,21.07
2023-03-02T01:43:47.397Z,18.43
2023-03-02T01:46:19.890Z,21.57
2023-03-02T01:49:01.231Z,24.67
2023-03-02T01:51:40.684Z,18.97
2023-03-02T01:54:10.211Z,21.57
2023-03-02T01:56:38.695Z,25.57
2023-03-02T01:59:07.805Z,21.27
2023-03-02T02:01:35.570Z,22.67
2023-03-02T02:04:02.896Z,22.40
2023-03-02T02:06:35.119Z,20.57
2023-03-02T02:09:03.612Z,21.23
2023-03-02T02:11:30.528Z,20.77
2023-03-02T02:13:58.680Z,20.43
2023-03-02T02:16:26.254Z,28.10
2023-03-02T02:18:53.055Z,23.00
2023-03-02T02:21:20.823Z,25.03
2023-03-02T02:23:53.538Z,27.93
2023-03-02T02:26:32.209Z,23.07
2023-03-02T02:29:04.461Z,23.40
2023-03-02T02:31:35.335Z,23.20
2023-03-02T02:34:22.689Z,20.70
2023-03-02T02:36:54.091Z,23.37
2023-03-02T02:39:22.112Z,21.30
2023-03-02T02:41:49.622Z,25.43
2023-03-02T02:44:17.350Z,22.07
2023-03-02T02:46:44.870Z,23.70
2023-03-02T02:49:21.114Z,20.27
2023-03-02T02:51:47.661Z,18.90
2023-03-02T02:54:17.355Z,26.93
2023-03-02T02:56:46.670Z,22.23
2023-03-02T02:59:21.070Z,22.73
2023-03-02T03:01:48.420Z,22.77
2023-03-02T03:04:18.756Z,25.90
2023-03-02T03:06:49.990Z,24.23
2023-03-02T03:09:16.728Z,22.43
2023-03-02T03:11:57.728Z,23.67
2023-03-02T03:14:27.892Z,22.80
2023-03-02T03:16:55.072Z,22.10
2023-03-02T03:19:23.648Z,21.90
2023-03-02T03:21:52.436Z,23.73
2023-03-02T03:24:19.988Z,30.10
2023-03-02T03:26:46.868Z,26.07
2023-03-02T03:29:15.106Z,22.57
2023-03-02T03:31:41.754Z,27.20
2023-03-02T03:34:09.343Z,25.83
2023-03-02T03:36:36.787Z,27.37
2023-03-02T03:39:05.613Z,23.73
2023-03-02T03:41:33.454Z,24.17
2023-03-02T03:44:00.668Z,23.73
2023-03-02T03:46:29.848Z,27.83
2023-03-02T03:48:57.138Z,23.80
2023-03-02T03:51:24.209Z,24.23
2023-03-02T03:53:59.792Z,25.47
2023-03-02T03:56:33.457Z,31.07
2023-03-02T03:59:07.149Z,26.60
2023-03-02T04:01:48.993Z,26.87
2023-03-02T04:04:18.833Z,24.10
2023-03-02T04:06:45.527Z,23.10
2023-03-02T04:09:12.383Z,26.57
2023-03-02T04:11:40.768Z,28.07
2023-03-02T04:14:07.965Z,25.67
2023-03-02T04:16:35.001Z,22.00
2023-03-02T04:19:01.900Z,23.17
2023-03-02T04:21:28.881Z,24.97
2023-03-02T04:23:55.621Z,23.73
2023-03-02T04:26:23.230Z,24.83
2023-03-02T04:28:50.964Z,25.17
2023-03-02T04:31:18.933Z,24.97
2023-03-02T04:33:45.677Z,26.50
2023-03-02T04:36:12.439Z,26.00
2023-03-02T04:38:38.977Z,25.80
2023-03-02T04:41:06.441Z,28.50
2023-03-02T04:43:32.956Z,25.47
2023-03-02T04:45:59.594Z,28.17
2023-03-02T04:48:26.157Z,23.97
2023-03-02T04:50:52.756Z,25.77
2023-03-02T04:53:19.240Z,26.97
2023-03-02T04:55:45.873Z,26.30
2023-03-02T04:58:12.401Z,24.30
2023-03-02T05:00:39.010Z,23.30
2023-03-02T05:03:05.669Z,27.20
2023-03-02T05:05:32.878Z,27.90
2023-03-02T05:08:00.027Z,28.07
2023-03-02T05:10:27.776Z,25.93
2023-03-02T05:13:05.170Z,25.97
2023-03-02T05:15:35.702Z,25.87
2023-03-02T05:18:02.780Z,25.73
2023-03-02T05:20:30.444Z,32.13
2023-03-02T05:23:07.893Z,27.43
2023-03-02T05:25:35.452Z,27.77
2023-03-02T05:28:02.545Z,27.93
2023-03-02T05:30:29.143Z,25.33
2023-03-02T05:32:55.687Z,27.90
2023-03-02T05:35:22.488Z,26.63
2023-03-02T05:37:49.205Z,27.50
2023-03-02T05:40:17.500Z,26.43
2023-03-02T05:42:44.241Z,26.97
2023-03-02T05:45:17.922Z,28.93
2023-03-02T05:47:44.485Z,25.37
2023-03-02T05:50:11.293Z,32.63
2023-03-02T05:52:37.779Z,32.67
2023-03-02T05:55:04.416Z,27.67
2023-03-02T05:57:30.978Z,28.80
2023-03-02T05:59:57.497Z,35.87
2023-03-02T06:02:24.058Z,31.75
2023-03-02T06:04:50.635Z,30.90
2023-03-02T06:07:17.152Z,34.00
2023-03-02T06:09:43.784Z,40.77
2023-03-02T06:12:10.462Z,49.40
2023-03-02T06:14:37.098Z,45.87
2023-03-02T06:17:03.799Z,37.13
2023-03-02T06:19:30.302Z,37.03
2023-03-02T06:21:56.859Z,37.30
2023-03-02T06:24:23.346Z,43.40
2023-03-02T06:26:50.101Z,36.77
2023-03-02T06:29:16.592Z,36.43
2023-03-02T06:31:43.192Z,36.23
2023-03-02T06:34:09.733Z,34.93
2023-03-02T06:36:38.736Z,36.77
2023-03-02T06:39:05.965Z,35.57
2023-03-02T06:41:33.838Z,33.13
2023-03-02T06:44:01.144Z,33.13
2023-03-02T06:46:27.663Z,32.43
2023-03-02T06:48:54.221Z,29.77
2023-03-02T06:51:20.779Z,32.53
2023-03-02T06:53:47.423Z,30.60
2023-03-02T06:56:14.026Z,30.10
2023-03-02T06:58:40.592Z,31.10
2023-03-02T07:01:07.912Z,30.70
2023-03-02T07:03:36.160Z,30.63
2023-03-02T07:06:04.123Z,26.80
2023-03-02T07:08:30.744Z,27.97
2023-03-02T07:10:57.308Z,32.50
2023-03-02T07:13:24.170Z,31.47
2023-03-02T07:15:50.760Z,31.87
2023-03-02T07:18:17.315Z,34.53
2023-03-02T07:20:43.849Z,31.63
2023-03-02T07:23:10.398Z,32.40
2023-03-02T07:25:37.077Z,34.43
2023-03-02T07:28:03.696Z,36.43
2023-03-02T07:30:30.304Z,34.43
2023-03-02T07:32:57.623Z,33.43
2023-03-02T07:35:24.172Z,34.43
2023-03-02T07:37:51.711Z,36.57
2023-03-02T07:40:18.596Z,38.60
2023-03-02T07:42:45.103Z,34.70
2023-03-02T07:45:13.905Z,38.60
2023-03-02T07:47:40.412Z,36.53
2023-03-02T07:50:07.271Z,34.93
2023-03-02T07:52:34.398Z,37.60
2023-03-02T07:55:00.900Z,40.03
2023-03-02T07:57:27.447Z,38.60
2023-03-02T07:59:53.947Z,36.07
2023-03-02T08:02:20.622Z,39.47
2023-03-02T08:04:47.302Z,37.53
2023-03-02T08:07:13.805Z,38.73
2023-03-02T08:09:40.445Z,40.23
2023-03-02T08:12:07.040Z,39.70
2023-03-02T08:14:33.579Z,38.37
2023-03-02T08:17:00.171Z,46.40
2023-03-02T08:19:26.711Z,52.10
2023-03-02T08:21:53.258Z,46.80
2023-03-02T08:24:19.807Z,43.70
2023-03-02T08:26:46.334Z,40.40
2023-03-02T08:29:12.822Z,40.10
2023-03-02T08:31:39.468Z,43.73
2023-03-02T08:34:06.091Z,44.20
2023-03-02T08:36:32.844Z,38.70
2023-03-02T08:38:59.552Z,42.53
2023-03-02T08:41:26.252Z,38.77
2023-03-02T08:43:55.392Z,37.10
2023-03-02T08:46:22.061Z,35.93
2023-03-02T08:48:50.676Z,33.80
2023-03-02T08:51:22.073Z,37.57
2023-03-02T08:53:50.519Z,34.97
2023-03-02T08:56:21.784Z,33.70
2023-03-02T08:58:48.899Z,38.67
2023-03-02T09:01:26.368Z,34.20
2023-03-02T09:03:53.015Z,34.83
2023-03-02T09:06:19.580Z,37.07
2023-03-02T09:08:46.134Z,34.57
2023-03-02T09:11:12.671Z,34.43
2023-03-02T09:13:39.181Z,33.57
2023-03-02T09:16:06.379Z,36.60
2023-03-02T09:18:33.013Z,29.83
2023-03-02T09:20:59.650Z,32.27
2023-03-02T09:23:26.529Z,32.10
2023-03-02T09:25:53.328Z,33.40
2023-03-02T09:28:21.767Z,31.37
2023-03-02T09:30:52.351Z,29.87
2023-03-02T09:33:19.153Z,32.23
2023-03-02T09:35:47.528Z,29.33
2023-03-02T09:38:17.092Z,28.63
2023-03-02T09:40:49.825Z,28.37
2023-03-02T09:43:22.678Z,29.43
2023-03-02T09:45:56.773Z,27.73
2023-03-02T09:48:28.793Z,25.67
2023-03-02T09:51:12.553Z,27.50
2023-03-02T09:53:54.177Z,23.70
2023-03-02T09:56:21.090Z,25.80
2023-03-02T09:59:00.940Z,25.43
2023-03-02T10:01:34.634Z,24.53
2023-03-02T10:04:19.777Z,23.57
2023-03-02T10:06:46.686Z,26.83
2023-03-02T10:09:13.322Z,30.17
2023-03-02T10:11:49.178Z,27.13
2023-03-02T10:14:23.472Z,24.90
2023-03-02T10:16:55.357Z,24.07
2023-03-02T10:19:25.215Z,23.93
2023-03-02T10:21:58.053Z,26.07
2023-03-02T10:24:33.620Z,21.53
2023-03-02T10:27:20.646Z,24.87
2023-03-02T10:30:02.708Z,24.00
2023-03-02T10:32:49.545Z,24.57
2023-03-02T10:35:23.756Z,21.20
2023-03-02T10:37:51.333Z,20.37
2023-03-02T10:40:30.206Z,21.87
2023-03-02T10:42:57.691Z,21.80
2023-03-02T10:45:27.146Z,22.27
2023-03-02T10:48:10.274Z,25.60
2023-03-02T10:50:37.198Z,25.00
2023-03-02T10:53:06.490Z,20.93
2023-03-02T10:55:33.684Z,19.83
2023-03-02T10:58:02.068Z,20.57
2023-03-02T11:00:29.626Z,22.07
2023-03-02T11:03:00.847Z,21.87
2023-03-02T11:05:41.418Z,22.23
2023-03-02T11:08:16.340Z,23.53
2023-03-02T11:11:01.157Z,19.97
2023-03-02T11:13:38.135Z,20.23
2023-03-02T11:16:21.905Z,32.83
2023-03-02T11:18:51.207Z,24.47
2023-03-02T11:21:35.805Z,22.77
2023-03-02T11:24:02.456Z,20.27
2023-03-02T11:26:50.737Z,22.10
2023-03-02T11:29:17.384Z,24.27
2023-03-02T11:31:55.778Z,22.80
2023-03-02T11:34:40.595Z,23.83
2023-03-02T11:37:23.479Z,21.17
2023-03-02T11:39:57.143Z,23.80
2023-03-02T11:42:30.693Z,25.57
2023-03-02T11:44:58.440Z,22.00
2023-03-02T11:47:25.265Z,23.37
2023-03-02T11:49:56.073Z,21.87
2023-03-02T11:52:24.790Z,23.73
2023-03-02T11:55:04.665Z,20.30
2023-03-02T11:57:33.396Z,21.87
2023-03-02T12:00:00.442Z,19.80
2023-03-02T12:02:27.407Z,23.70
2023-03-02T12:05:06.158Z,22.60
2023-03-02T12:07:32.784Z,23.77
2023-03-02T12:10:06.956Z,22.27
2023-03-02T12:12:33.454Z,20.43
2023-03-02T12:15:00.440Z,23.07
2023-03-02T12:17:27.067Z,19.47
2023-03-02T12:19:55.336Z,19.57
2023-03-02T12:22:31.723Z,22.97
2023-03-02T12:25:07.642Z,19.23
2023-03-02T12:27:35.788Z,18.73
2023-03-02T12:30:08.599Z,17.60
2023-03-02T12:32:35.302Z,19.17
2023-03-02T12:35:08.064Z,19.57
2023-03-02T12:37:48.571Z,20.63
2023-03-02T12:40:15.118Z,23.57
2023-03-02T12:43:00.412Z,19.07
2023-03-02T12:45:45.105Z,18.73
2023-03-02T12:48:30.398Z,20.13
2023-03-02T12:51:00.037Z,17.43
2023-03-02T12:53:26.602Z,18.23
2023-03-02T12:55:53.164Z,18.53
2023-03-02T12:58:24.198Z,66.10
2023-03-02T13:00:55.825Z,19.27
2023-03-02T13:03:22.699Z,31.63
2023-03-02T13:05:49.342Z,19.90
2023-03-02T13:08:28.678Z,18.73
2023-03-02T13:10:56.790Z,27.70
2023-03-02T13:13:25.483Z,20.63
2023-03-02T13:15:59.272Z,18.13
2023-03-02T13:18:31.780Z,17.40
2023-03-02T13:20:59.182Z,19.30
2023-03-02T13:23:26.316Z,16.73
2023-03-02T13:25:54.208Z,18.10
2023-03-02T13:28:27.656Z,17.80
2023-03-02T13:31:02.565Z,17.07
2023-03-02T13:33:30.629Z,17.83
2023-03-02T13:35:57.307Z,19.00
2023-03-02T13:38:26.558Z,16.20
2023-03-02T13:40:53.952Z,21.20
2023-03-02T13:43:26.479Z,16.93
2023-03-02T13:46:13.324Z,19.87
2023-03-02T13:48:39.866Z,16.23
2023-03-02T13:51:16.549Z,23.53
2023-03-02T13:53:45.718Z,18.13
2023-03-02T13:56:15.088Z,19.90
2023-03-02T13:58:41.861Z,18.70
2023-03-02T14:01:08.438Z,16.47
2023-03-02T14:03:35.006Z,15.87
2023-03-02T14:06:01.541Z,16.87
2023-03-02T14:08:28.153Z,16.37
2023-03-02T14:10:57.288Z,40.57
2023-03-02T14:13:25.408Z,15.97
2023-03-02T14:15:53.003Z,16.00
2023-03-02T14:18:25.661Z,62.17
2023-03-02T14:20:52.262Z,213.33
2023-03-02T14:23:18.887Z,19.63
2023-03-02T14:25:45.498Z,14.73
2023-03-02T14:28:13.503Z,14.73
2023-03-02T14:30:41.600Z,31.47
2023-03-02T14:33:14.393Z,26.13
2023-03-02T14:35:41.358Z,27.83
2023-03-02T14:38:09.220Z,16.43
2023-03-02T14:40:36.545Z,14.10
2023-03-02T14:43:03.115Z,13.67
2023-03-02T14:45:30.885Z,12.00
2023-03-02T14:47:57.590Z,13.10
2023-03-02T14:50:24.084Z,13.30
2023-03-02T14:52:54.854Z,17.67
2023-03-02T14:55:25.848Z,15.77
2023-03-02T14:58:10.526Z,18.40
2023-03-02T15:00:37.119Z,15.00
2023-03-02T15:03:03.710Z,12.80
2023-03-02T15:05:30.355Z,14.27
2023-03-02T15:07:58.677Z,14.17
2023-03-02T15:10:25.537Z,16.07
2023-03-02T15:12:52.049Z,18.53
2023-03-02T15:15:18.968Z,14.07
2023-03-02T15:17:45.510Z,14.07
2023-03-02T15:20:16.460Z,19.47
2023-03-02T15:22:43.405Z,16.23
2023-03-02T15:25:10.134Z,12.90
2023-03-02T15:27:36.640Z,14.00
2023-03-02T15:30:03.833Z,15.20
2023-03-02T15:32:30.448Z,13.90
2023-03-02T15:34:56.953Z,16.63
2023-03-02T15:37:23.499Z,13.53
2023-03-02T15:39:54.261Z,13.87
2023-03-02T15:42:20.756Z,12.83
2023-03-02T15:44:47.351Z,14.40
2023-03-02T15:47:13.891Z,15.60
2023-03-02T15:49:40.418Z,15.40
2023-03-02T15:52:06.987Z,12.47
2023-03-02T15:54:33.600Z,13.00
2023-03-02T15:57:00.069Z,12.83
2023-03-02T15:59:27.722Z,13.13
2023-03-02T16:01:59.141Z,13.57
2023-03-02T16:04:26.853Z,17.07
2023-03-02T16:06:54.900Z,15.83
2023-03-02T16:09:21.930Z,13.53
2023-03-02T16:11:51.912Z,14.77
2023-03-02T16:14:18.445Z,16.13
2023-03-02T16:16:45.715Z,13.43
2023-03-02T16:19:13.277Z,17.10
2023-03-02T16:21:39.869Z,18.03
2023-03-02T16:24:06.810Z,20.07
2023-03-02T16:26:34.493Z,18.00
2023-03-02T16:29:01.493Z,21.10
2023-03-02T16:31:28.485Z,19.63
2023-03-02T16:33:55.864Z,21.20
2023-03-02T16:36:22.417Z,19.83
2023-03-02T16:38:49.026Z,18.47
2023-03-02T16:41:17.629Z,22.67
2023-03-02T16:43:48.484Z,28.07
2023-03-02T16:46:15.727Z,33.17
2023-03-02T16:48:42.879Z,30.10
2023-03-02T16:51:09.844Z,31.23
2023-03-02T16:53:36.391Z,27.27
2023-03-02T16:56:03.280Z,27.97
2023-03-02T16:58:29.871Z,29.33
2023-03-02T17:00:56.588Z,30.83
2023-03-02T17:03:23.245Z,30.00
2023-03-02T17:05:49.881Z,36.37
2023-03-02T17:08:16.870Z,67.93
2023-03-02T17:10:43.777Z,41.13
2023-03-02T17:13:12.100Z,39.93
2023-03-02T17:15:38.666Z,49.50
2023-03-02T17:18:05.281Z,39.07
2023-03-02T17:20:31.825Z,44.00
2023-03-02T17:22:58.318Z,35.63
2023-03-02T17:25:24.859Z,38.43
2023-03-02T17:27:51.456Z,37.03
2023-03-02T17:30:18.071Z,45.33
2023-03-02T17:32:44.696Z,41.03
2023-03-02T17:35:11.956Z,36.07
2023-03-02T17:37:38.493Z,35.27
2023-03-02T17:40:05.681Z,37.37
2023-03-02T17:42:32.652Z,37.57
2023-03-02T17:44:59.157Z,35.30
2023-03-02T17:47:25.767Z,40.43
2023-03-02T17:49:52.253Z,39.43
2023-03-02T17:52:19.178Z,35.90
2023-03-02T17:54:45.695Z,39.67
2023-03-02T17:57:12.511Z,42.03
2023-03-02T17:59:39.126Z,37.60
2023-03-02T18:02:05.673Z,37.30
2023-03-02T18:04:32.362Z,39.57
2023-03-02T18:06:58.987Z,38.77
2023-03-02T18:09:25.552Z,37.10
2023-03-02T18:11:52.147Z,39.93
2023-03-02T18:14:19.918Z,36.93
2023-03-02T18:16:46.841Z,39.93
2023-03-02T18:19:13.770Z,41.38
2023-03-02T18:21:41.844Z,41.50
2023-03-02T18:24:09.112Z,41.20
2023-03-02T18:26:35.644Z,40.20
2023-03-02T18:29:02.250Z,41.27
2023-03-02T18:31:29.068Z,41.27
2023-03-02T18:33:55.720Z,41.23
2023-03-02T18:36:22.245Z,43.20
2023-03-02T18:38:48.827Z,40.57
2023-03-02T18:41:15.352Z,38.50
2023-03-02T18:43:42.541Z,42.30
2023-03-02T18:46:17.657Z,41.70
2023-03-02T18:48:44.177Z,41.23
2023-03-02T18:51:10.699Z,41.93
2023-03-02T18:53:38.168Z,44.40
2023-03-02T18:56:04.805Z,41.47
2023-03-02T18:58:34.124Z,39.23
2023-03-02T19:01:01.245Z,42.47
2023-03-02T19:03:28.020Z,47.73
2023-03-02T19:05:57.644Z,47.93
2023-03-02T19:08:25.107Z,39.43
2023-03-02T19:10:51.961Z,41.97
2023-03-02T19:13:18.763Z,39.10
2023-03-02T19:15:45.373Z,45.53
2023-03-02T19:18:16.109Z,38.87
2023-03-02T19:20:44.578Z,41.83
2023-03-02T19:23:11.250Z,45.17
2023-03-02T19:25:38.716Z,50.13
2023-03-02T19:28:05.961Z,44.17
2023-03-02T19:30:34.029Z,50.77
2023-03-02T19:33:01.860Z,45.87
2023-03-02T19:35:29.509Z,51.40
2023-03-02T19:37:56.066Z,51.87
2023-03-02T19:40:24.661Z,52.93
2023-03-02T19:42:51.983Z,54.43
2023-03-02T19:45:27.293Z,57.03
2023-03-02T19:47:56.495Z,52.47
2023-03-02T19:50:24.925Z,62.10
2023-03-02T19:52:52.455Z,60.10
2023-03-02T19:55:20.154Z,56.57
2023-03-02T19:57:51.300Z,58.07
2023-03-02T20:00:19.337Z,57.40
2023-03-02T20:02:47.226Z,136.60
2023-03-02T20:05:13.874Z,94.87
2023-03-02T20:07:41.843Z,84.73
2023-03-02T20:10:09.436Z,64.73
2023-03-02T20:12:36.905Z,65.83
2023-03-02T20:15:04.713Z,95.30
2023-03-02T20:17:31.267Z,82.30
2023-03-02T20:19:58.562Z,68.53
2023-03-02T20:22:25.880Z,86.13
2023-03-02T20:24:52.433Z,55.30
2023-03-02T20:27:18.968Z,64.03
2023-03-02T20:29:45.621Z,60.83
2023-03-02T20:32:12.865Z,70.07
2023-03-02T20:34:41.034Z,69.20
2023-03-02T20:37:07.560Z,72.93
2023-03-02T20:39:35.529Z,85.23
2023-03-02T20:42:02.759Z,63.63
2023-03-02T20:44:31.113Z,80.73
2023-03-02T20:46:59.324Z,62.33
2023-03-02T20:49:27.181Z,123.87
2023-03-02T20:51:54.888Z,76.07
2023-03-02T20:54:32.504Z,89.30
2023-03-02T20:56:59.334Z,97.80
2023-03-02T20:59:26.989Z,141.53
2023-03-02T21:01:53.965Z,144.33
2023-03-02T21:04:20.654Z,78.80
2023-03-02T21:06:47.448Z,105.60
2023-03-02T21:09:14.516Z,207.00
2023-03-02T21:11:41.056Z,82.50
2023-03-02T21:14:07.728Z,110.97
2023-03-02T21:16:37.014Z,91.03
2023-03-02T21:19:05.544Z,92.47
2023-03-02T21:21:41.066Z,78.30
2023-03-02T21:24:09.894Z,154.00
2023-03-02T21:26:36.895Z,145.37
2023-03-02T21:29:05.134Z,56.83
2023-03-02T21:31:31.778Z,54.47
2023-03-02T21:33:58.297Z,85.73
2023-03-02T21:36:24.907Z,55.83
2023-03-02T21:38:51.850Z,49.83
2023-03-02T21:41:18.852Z,58.43
2023-03-02T21:43:45.471Z,54.43
2023-03-02T21:46:16.720Z,64.63
2023-03-02T21:48:43.905Z,128.43
2023-03-02T21:51:11.116Z,66.97
2023-03-02T21:53:37.794Z,58.47
2023-03-02T21:56:04.584Z,77.27
2023-03-02T21:58:31.116Z,51.60
2023-03-02T22:00:57.734Z,52.33
2023-03-02T22:03:24.287Z,45.53
2023-03-02T22:05:51.111Z,67.57
2023-03-02T22:08:18.426Z,64.67
2023-03-02T22:10:49.057Z,47.80
2023-03-02T22:13:17.406Z,55.47
2023-03-02T22:15:45.286Z,46.73
2023-03-02T22:18:16.500Z,50.60
2023-03-02T22:20:44.545Z,136.00
2023-03-02T22:23:21.718Z,98.63
2023-03-02T22:25:52.729Z,97.70
2023-03-02T22:28:23.748Z,54.67
2023-03-02T22:30:53.417Z,81.07
2023-03-02T22:33:21.219Z,84.43
2023-03-02T22:35:48.760Z,60.17
2023-03-02T22:38:25.539Z,134.57
2023-03-02T22:40:52.630Z,57.70
2023-03-02T22:43:25.657Z,51.03
2023-03-02T22:45:52.645Z,39.77
2023-03-02T22:48:20.824Z,104.90
2023-03-02T22:50:48.458Z,43.03
2023-03-02T22:53:28.799Z,40.03
2023-03-02T22:55:59.531Z,79.97
2023-03-02T22:58:38.084Z,56.23
2023-03-02T23:01:13.929Z,54.40
2023-03-02T23:03:43.231Z,47.33
2023-03-02T23:06:22.252Z,44.27
2023-03-02T23:08:48.757Z,63.13
2023-03-02T23:11:17.940Z,40.70
2023-03-02T23:13:44.638Z,41.03
2023-03-02T23:16:14.460Z,59.20
2023-03-02T23:18:43.065Z,44.47
2023-03-02T23:21:20.714Z,74.90
2023-03-02T23:23:47.654Z,44.70
2023-03-02T23:26:14.206Z,85.80
2023-03-02T23:28:40.782Z,57.33
2023-03-02T23:31:07.319Z,60.67
2023-03-02T23:33:33.882Z,77.37
2023-03-02T23:36:00.792Z,62.00
2023-03-02T23:38:27.528Z,54.43
2023-03-02T23:40:54.399Z,44.93
2023-03-02T23:43:20.996Z,46.23
2023-03-02T23:45:47.525Z,37.90
2023-03-02T23:48:14.026Z,42.80
2023-03-02T23:50:40.565Z,55.57
2023-03-02T23:53:07.143Z,34.43
2023-03-02T23:55:34.071Z,51.17
2023-03-02T23:58:00.728Z,77.57
